createdAt,value
2019-02-25T00:01:11.819Z,2.10
2019-02-25T00:03:40.992Z,2.00
2019-02-25T00:06:10.260Z,2.00
2019-02-25T00:08:39.199Z,2.00
2019-02-25T00:11:08.597Z,2.00
2019-02-25T00:13:37.690Z,2.00
2019-02-25T00:16:06.680Z,1.90
2019-02-25T00:18:36.279Z,1.90
2019-02-25T00:21:05.602Z,1.90
2019-02-25T00:23:35.813Z,1.90
2019-02-25T00:26:04.800Z,1.90
2019-02-25T00:28:34.333Z,1.90
2019-02-25T00:31:04.962Z,1.90
2019-02-25T00:33:37.401Z,1.90
2019-02-25T00:36:07.035Z,1.90
2019-02-25T00:38:36.159Z,1.90
2019-02-25T00:41:05.348Z,1.90
2019-02-25T00:43:34.345Z,1.90
2019-02-25T00:46:03.921Z,1.90
2019-02-25T00:48:32.913Z,1.90
2019-02-25T00:51:02.101Z,1.90
2019-02-25T00:53:31.125Z,1.90
2019-02-25T00:56:03.493Z,1.90
2019-02-25T00:58:33.187Z,1.90
2019-02-25T01:01:02.168Z,1.80
2019-02-25T01:03:31.365Z,1.80
2019-02-25T01:06:00.857Z,1.80
2019-02-25T01:08:30.860Z,1.80
2019-02-25T01:11:00.201Z,1.80
2019-02-25T01:13:29.401Z,1.80
2019-02-25T01:15:59.165Z,1.80
2019-02-25T01:18:29.394Z,1.80
2019-02-25T01:20:58.513Z,1.80
2019-02-25T01:23:27.696Z,1.80
2019-02-25T01:25:56.848Z,1.80
2019-02-25T01:28:37.708Z,1.80
2019-02-25T01:31:07.007Z,1.80
2019-02-25T01:33:36.188Z,1.80
2019-02-25T01:36:05.870Z,1.70
2019-02-25T01:38:35.564Z,1.70
2019-02-25T01:41:04.419Z,1.70
2019-02-25T01:43:33.505Z,1.60
2019-02-25T01:46:02.613Z,1.50
2019-02-25T01:48:33.528Z,1.50
2019-02-25T01:51:04.537Z,1.50
2019-02-25T01:53:35.521Z,1.50
2019-02-25T01:56:07.336Z,1.50
2019-02-25T01:58:37.647Z,1.50
2019-02-25T02:01:08.853Z,1.50
2019-02-25T02:03:37.990Z,1.50
2019-02-25T02:06:07.279Z,1.50
2019-02-25T02:08:36.195Z,1.50
2019-02-25T02:11:05.808Z,1.50
2019-02-25T02:13:35.219Z,1.50
2019-02-25T02:16:08.682Z,1.50
2019-02-25T02:18:42.681Z,1.50
2019-02-25T02:21:12.023Z,1.50
2019-02-25T02:23:41.786Z,1.60
2019-02-25T02:26:11.159Z,1.60
2019-02-25T02:28:40.346Z,1.60
2019-02-25T02:31:09.594Z,1.60
2019-02-25T02:33:40.047Z,1.60
2019-02-25T02:36:11.699Z,1.50
2019-02-25T02:38:40.853Z,1.50
2019-02-25T02:41:11.654Z,1.50
2019-02-25T02:43:41.036Z,1.50
2019-02-25T02:46:54.300Z,1.50
2019-02-25T02:49:26.505Z,1.40
2019-02-25T02:51:56.133Z,1.40
2019-02-25T02:54:25.225Z,1.30
2019-02-25T02:56:55.014Z,1.20
2019-02-25T02:59:24.935Z,1.20
2019-02-25T03:01:53.790Z,1.20
2019-02-25T03:04:23.374Z,1.20
2019-02-25T03:06:52.159Z,1.20
2019-02-25T03:09:21.033Z,1.20
2019-02-25T03:11:50.751Z,1.20
2019-02-25T03:14:19.960Z,1.20
2019-02-25T03:16:48.745Z,1.20
2019-02-25T03:19:17.677Z,1.20
2019-02-25T03:21:47.135Z,1.20
2019-02-25T03:24:20.717Z,1.10
2019-02-25T03:26:51.026Z,1.10
2019-02-25T03:29:20.148Z,1.10
2019-02-25T03:31:49.018Z,1.10
2019-02-25T03:34:18.123Z,1.10
2019-02-25T03:36:47.427Z,1.00
2019-02-25T03:39:16.716Z,1.00
2019-02-25T03:41:46.060Z,0.90
2019-02-25T03:44:14.825Z,0.90
2019-02-25T03:46:44.253Z,0.90
2019-02-25T03:49:13.606Z,0.80
2019-02-25T03:51:42.417Z,0.80
2019-02-25T03:54:11.466Z,0.80
2019-02-25T03:56:40.254Z,0.80
2019-02-25T03:59:09.054Z,0.70
2019-02-25T04:01:38.343Z,0.70
2019-02-25T04:04:07.405Z,0.70
2019-02-25T04:06:36.485Z,0.70
2019-02-25T04:09:07.030Z,0.60
2019-02-25T04:11:36.135Z,0.50
2019-02-25T04:14:05.035Z,0.50
2019-02-25T04:16:34.374Z,0.50
2019-02-25T04:19:03.550Z,0.50
2019-02-25T04:21:32.687Z,0.50
2019-02-25T04:24:02.293Z,0.50
2019-02-25T04:26:31.352Z,0.50
2019-02-25T04:29:00.157Z,0.50
2019-02-25T04:31:29.181Z,0.50
2019-02-25T04:33:58.484Z,0.50
2019-02-25T04:36:27.754Z,0.50
2019-02-25T04:38:56.931Z,0.50
2019-02-25T04:41:25.981Z,0.40
2019-02-25T04:43:54.809Z,0.40
2019-02-25T04:46:24.118Z,0.40
2019-02-25T04:48:53.425Z,0.30
2019-02-25T04:51:22.283Z,0.30
2019-02-25T04:53:51.561Z,0.30
2019-02-25T04:56:20.602Z,0.30
2019-02-25T04:58:49.873Z,0.30
2019-02-25T05:01:18.961Z,0.20
2019-02-25T05:03:47.997Z,0.20
2019-02-25T05:06:17.097Z,0.10
2019-02-25T05:08:46.448Z,0.10
2019-02-25T05:11:15.793Z,0.20
2019-02-25T05:13:45.098Z,0.20
2019-02-25T05:16:14.402Z,0.20
2019-02-25T05:18:43.440Z,0.20
2019-02-25T05:21:12.753Z,0.20
2019-02-25T05:23:41.795Z,0.30
2019-02-25T05:26:10.870Z,0.30
2019-02-25T05:28:40.209Z,0.30
2019-02-25T05:31:09.740Z,0.30
2019-02-25T05:33:38.613Z,0.30
2019-02-25T05:36:07.710Z,0.30
2019-02-25T05:38:36.456Z,0.30
2019-02-25T05:41:05.297Z,0.20
2019-02-25T05:43:34.344Z,0.20
2019-02-25T05:46:03.126Z,0.20
2019-02-25T05:48:32.671Z,0.20
2019-02-25T05:51:02.007Z,0.20
2019-02-25T05:53:31.069Z,0.10
2019-02-25T05:55:59.820Z,0.10
2019-02-25T05:58:28.829Z,0.10
2019-02-25T06:00:57.908Z,0.10
2019-02-25T06:03:27.188Z,0.10
2019-02-25T06:05:56.646Z,0.10
2019-02-25T06:08:25.779Z,0.10
2019-02-25T06:10:55.164Z,0.10
2019-02-25T06:13:24.489Z,0.10
2019-02-25T06:15:53.513Z,0.10
2019-02-25T06:18:22.568Z,0.10
2019-02-25T06:20:51.413Z,0.00
2019-02-25T06:23:20.534Z,0.00
2019-02-25T06:25:49.878Z,-0.10
2019-02-25T06:28:19.154Z,-0.10
2019-02-25T06:30:47.945Z,-0.10
2019-02-25T06:33:17.082Z,-0.20
2019-02-25T06:35:45.880Z,-0.20
2019-02-25T06:38:15.428Z,-0.20
2019-02-25T06:40:44.979Z,-0.10
2019-02-25T06:43:14.177Z,-0.10
2019-02-25T06:45:43.224Z,0.00
2019-02-25T06:48:12.896Z,0.00
2019-02-25T06:50:41.700Z,0.00
2019-02-25T06:53:10.542Z,0.00
2019-02-25T06:55:39.850Z,0.00
2019-02-25T06:58:09.232Z,0.00
2019-02-25T07:00:38.270Z,0.00
2019-02-25T07:03:07.294Z,0.10
2019-02-25T07:05:53.890Z,0.10
2019-02-25T07:08:29.732Z,0.10
2019-02-25T07:11:36.354Z,0.20
2019-02-25T07:14:23.916Z,0.20
2019-02-25T07:17:26.976Z,0.20
2019-02-25T07:20:20.310Z,0.30
2019-02-25T07:23:04.361Z,0.30
2019-02-25T07:25:45.741Z,0.40
2019-02-25T07:28:37.264Z,0.40
2019-02-25T07:31:18.525Z,0.50
2019-02-25T07:34:07.301Z,0.60
2019-02-25T07:36:54.097Z,0.60
2019-02-25T07:39:54.608Z,0.70
2019-02-25T07:42:32.012Z,0.70
2019-02-25T07:45:17.673Z,0.80
2019-02-25T07:48:04.944Z,0.90
2019-02-25T07:50:50.041Z,0.90
2019-02-25T07:53:38.331Z,1.00
2019-02-25T07:56:22.306Z,1.10
2019-02-25T07:59:05.706Z,1.20
2019-02-25T08:01:47.389Z,1.30
2019-02-25T08:04:34.224Z,1.40
2019-02-25T08:07:16.711Z,1.50
2019-02-25T08:10:11.415Z,1.60
2019-02-25T08:12:48.947Z,1.60
2019-02-25T08:15:29.642Z,1.80
2019-02-25T08:18:07.210Z,1.80
2019-02-25T08:20:55.455Z,1.90
2019-02-25T08:23:46.706Z,2.00
2019-02-25T08:26:33.455Z,2.10
2019-02-25T08:29:24.805Z,2.20
2019-02-25T08:32:11.865Z,2.30
2019-02-25T08:34:57.659Z,2.40
2019-02-25T08:37:59.015Z,2.50
2019-02-25T08:40:44.779Z,2.70
2019-02-25T08:43:33.808Z,2.70
2019-02-25T08:46:22.669Z,2.80
2019-02-25T08:48:58.109Z,2.90
2019-02-25T08:51:27.257Z,3.00
2019-02-25T08:53:56.369Z,3.10
2019-02-25T08:56:25.599Z,3.20
2019-02-25T08:58:55.008Z,3.40
2019-02-25T09:01:24.656Z,3.50
2019-02-25T09:03:53.865Z,3.60
2019-02-25T09:06:23.141Z,3.70
2019-02-25T09:08:52.779Z,3.90
2019-02-25T09:11:22.083Z,4.00
2019-02-25T09:13:51.435Z,4.10
2019-02-25T09:16:20.886Z,4.30
2019-02-25T09:18:49.894Z,4.40
2019-02-25T09:21:18.981Z,4.50
2019-02-25T09:23:47.736Z,4.60
2019-02-25T09:26:17.051Z,4.70
2019-02-25T09:28:46.379Z,4.80
2019-02-25T09:31:15.674Z,4.90
2019-02-25T09:33:44.728Z,5.00
2019-02-25T09:36:13.738Z,5.10
2019-02-25T09:38:42.763Z,5.20
2019-02-25T09:41:11.814Z,5.30
2019-02-25T09:43:40.874Z,5.40
2019-02-25T09:46:10.422Z,5.50
2019-02-25T09:48:39.825Z,5.60
2019-02-25T09:51:08.868Z,5.60
2019-02-25T09:53:37.655Z,5.70
2019-02-25T09:56:07.129Z,5.80
2019-02-25T09:58:36.417Z,5.90
2019-02-25T10:01:06.151Z,6.00
2019-02-25T10:03:35.513Z,6.10
2019-02-25T10:06:04.664Z,6.10
2019-02-25T10:08:33.450Z,6.10
2019-02-25T10:11:02.212Z,6.20
2019-02-25T10:13:31.278Z,6.30
2019-02-25T10:16:00.308Z,6.30
2019-02-25T10:18:29.389Z,6.40
2019-02-25T10:20:58.517Z,6.50
2019-02-25T10:23:27.300Z,6.60
2019-02-25T10:25:59.382Z,6.70
2019-02-25T10:28:28.226Z,6.80
2019-02-25T10:30:57.988Z,6.90
2019-02-25T10:33:27.241Z,7.00
2019-02-25T10:35:56.277Z,7.10
2019-02-25T10:38:25.697Z,7.20
2019-02-25T10:40:55.217Z,7.20
2019-02-25T10:43:26.097Z,7.30
2019-02-25T10:45:55.470Z,7.40
2019-02-25T10:48:25.881Z,7.50
2019-02-25T10:50:56.289Z,7.60
2019-02-25T10:53:25.736Z,7.70
2019-02-25T10:56:22.063Z,7.80
2019-02-25T10:58:52.222Z,7.90
2019-02-25T11:01:22.326Z,8.00
2019-02-25T11:03:54.235Z,8.10
2019-02-25T11:06:25.117Z,8.10
2019-02-25T11:09:15.661Z,8.20
2019-02-25T11:11:44.280Z,8.20
2019-02-25T11:14:14.805Z,8.30
2019-02-25T11:16:47.637Z,8.40
2019-02-25T11:19:16.577Z,8.40
2019-02-25T11:21:46.394Z,8.50
2019-02-25T11:24:16.628Z,8.60
2019-02-25T11:26:47.202Z,8.70
2019-02-25T11:29:16.590Z,8.80
2019-02-25T11:31:47.403Z,8.80
2019-02-25T11:34:16.701Z,9.00
2019-02-25T11:36:48.163Z,9.10
2019-02-25T11:39:17.633Z,9.20
2019-02-25T11:41:46.781Z,9.20
2019-02-25T11:44:18.858Z,9.30
2019-02-25T11:46:48.494Z,9.40
2019-02-25T11:49:18.582Z,9.50
2019-02-25T11:51:47.734Z,9.60
2019-02-25T11:54:17.021Z,9.70
2019-02-25T11:56:45.814Z,9.80
2019-02-25T11:59:15.066Z,9.80
2019-02-25T12:01:44.145Z,9.90
2019-02-25T12:04:13.217Z,9.90
2019-02-25T12:06:42.137Z,10.00
2019-02-25T12:09:11.694Z,10.00
2019-02-25T12:11:40.704Z,10.10
2019-02-25T12:14:09.469Z,10.20
2019-02-25T12:16:38.361Z,10.30
2019-02-25T12:19:07.398Z,10.30
2019-02-25T12:21:36.426Z,10.40
2019-02-25T12:24:05.444Z,10.40
2019-02-25T12:26:34.573Z,10.40
2019-02-25T12:29:10.647Z,10.40
2019-02-25T12:31:35.086Z,10.40
2019-02-25T12:34:04.409Z,10.40
2019-02-25T12:36:33.461Z,10.40
2019-02-25T12:39:02.772Z,10.40
2019-02-25T12:41:33.126Z,10.50
2019-02-25T12:44:02.463Z,10.50
2019-02-25T12:46:31.214Z,10.60
2019-02-25T12:49:00.009Z,10.60
2019-02-25T12:51:29.401Z,10.70
2019-02-25T12:53:58.224Z,10.80
2019-02-25T12:56:27.043Z,10.90
2019-02-25T12:58:56.065Z,10.90
2019-02-25T13:01:25.002Z,11.00
2019-02-25T13:03:54.144Z,11.00
2019-02-25T13:06:23.019Z,11.00
2019-02-25T13:08:52.413Z,11.10
2019-02-25T13:11:21.697Z,11.10
2019-02-25T13:13:50.746Z,11.20
2019-02-25T13:16:20.113Z,11.20
2019-02-25T13:18:48.881Z,11.30
2019-02-25T13:21:18.214Z,11.30
2019-02-25T13:23:46.990Z,11.30
2019-02-25T13:26:16.065Z,11.30
2019-02-25T13:28:44.970Z,11.30
2019-02-25T13:31:14.344Z,11.40
2019-02-25T13:33:43.111Z,11.30
2019-02-25T13:36:12.764Z,11.40
2019-02-25T13:38:41.660Z,11.40
2019-02-25T13:41:10.794Z,11.40
2019-02-25T13:43:40.247Z,11.40
2019-02-25T13:46:09.131Z,11.50
2019-02-25T13:48:38.109Z,11.40
2019-02-25T13:51:07.209Z,11.50
2019-02-25T13:53:36.692Z,11.50
2019-02-25T13:56:06.280Z,11.60
2019-02-25T13:58:35.420Z,11.60
2019-02-25T14:01:04.571Z,11.60
2019-02-25T14:03:34.044Z,11.60
2019-02-25T14:06:02.963Z,11.60
2019-02-25T14:08:32.045Z,11.60
2019-02-25T14:11:01.155Z,11.60
2019-02-25T14:13:30.534Z,11.60
2019-02-25T14:15:59.712Z,11.70
2019-02-25T14:18:28.831Z,11.70
2019-02-25T14:20:57.843Z,11.70
2019-02-25T14:23:26.601Z,11.70
2019-02-25T14:25:57.265Z,11.70
2019-02-25T14:28:26.513Z,11.70
2019-02-25T14:30:55.715Z,11.70
2019-02-25T14:33:24.495Z,11.70
2019-02-25T14:35:53.669Z,11.70
2019-02-25T14:38:24.693Z,11.70
2019-02-25T14:40:54.620Z,11.70
2019-02-25T14:43:27.304Z,11.70
2019-02-25T14:45:56.861Z,11.60
2019-02-25T14:48:27.936Z,11.60
2019-02-25T14:50:57.741Z,11.50
2019-02-25T14:53:26.854Z,11.60
2019-02-25T14:55:58.140Z,11.60
2019-02-25T14:58:26.420Z,11.60
2019-02-25T15:00:55.441Z,11.50
2019-02-25T15:03:25.287Z,11.50
2019-02-25T15:05:56.915Z,11.50
2019-02-25T15:08:28.335Z,11.50
2019-02-25T15:11:00.441Z,11.50
2019-02-25T15:13:30.341Z,11.40
2019-02-25T15:15:59.682Z,11.40
2019-02-25T15:18:29.580Z,11.40
2019-02-25T15:21:00.646Z,11.40
2019-02-25T15:23:30.207Z,11.40
2019-02-25T15:26:05.447Z,11.30
2019-02-25T15:28:30.221Z,11.30
2019-02-25T15:31:04.129Z,11.30
2019-02-25T15:33:33.270Z,11.20
2019-02-25T15:36:02.926Z,11.20
2019-02-25T15:38:33.123Z,11.20
2019-02-25T15:41:05.021Z,11.20
2019-02-25T15:43:34.531Z,11.10
2019-02-25T15:46:04.189Z,11.00
2019-02-25T15:48:34.894Z,11.00
2019-02-25T15:51:04.531Z,11.00
2019-02-25T15:53:33.882Z,10.90
2019-02-25T15:56:03.692Z,10.90
2019-02-25T15:58:33.901Z,10.90
2019-02-25T16:01:03.488Z,10.80
2019-02-25T16:03:35.034Z,10.80
2019-02-25T16:06:06.166Z,10.70
2019-02-25T16:08:36.657Z,10.60
2019-02-25T16:11:06.031Z,10.50
2019-02-25T16:13:37.754Z,10.50
2019-02-25T16:16:09.033Z,10.40
2019-02-25T16:18:40.410Z,10.30
2019-02-25T16:21:11.195Z,10.30
2019-02-25T16:23:41.362Z,10.20
2019-02-25T16:26:13.376Z,10.10
2019-02-25T16:28:42.316Z,10.00
2019-02-25T16:31:12.647Z,9.90
2019-02-25T16:33:42.776Z,9.80
2019-02-25T16:36:11.702Z,9.70
2019-02-25T16:38:41.143Z,9.70
2019-02-25T16:41:10.328Z,9.50
2019-02-25T16:43:39.497Z,9.40
2019-02-25T16:46:10.243Z,9.30
2019-02-25T16:48:39.619Z,9.30
2019-02-25T16:51:10.179Z,9.10
2019-02-25T16:53:41.524Z,9.10
2019-02-25T16:56:11.899Z,8.90
2019-02-25T16:58:41.957Z,8.80
2019-02-25T17:01:12.660Z,8.80
2019-02-25T17:03:43.664Z,8.60
2019-02-25T17:06:14.030Z,8.50
2019-02-25T17:08:43.073Z,8.40
2019-02-25T17:11:12.927Z,8.30
2019-02-25T17:13:43.478Z,8.20
2019-02-25T17:16:18.210Z,8.20
2019-02-25T17:18:45.910Z,8.10
2019-02-25T17:21:15.467Z,8.00
2019-02-25T17:23:44.412Z,7.90
2019-02-25T17:26:14.944Z,7.80
2019-02-25T17:28:44.950Z,7.70
2019-02-25T17:31:16.116Z,7.70
2019-02-25T17:33:46.930Z,7.50
2019-02-25T17:36:17.351Z,7.50
2019-02-25T17:38:47.924Z,7.40
2019-02-25T17:41:18.255Z,7.30
2019-02-25T17:43:47.665Z,7.30
2019-02-25T17:46:16.527Z,7.20
2019-02-25T17:48:46.145Z,7.10
2019-02-25T17:51:16.255Z,7.10
2019-02-25T17:53:48.108Z,7.00
2019-02-25T17:56:18.141Z,7.00
2019-02-25T17:58:47.629Z,6.90
2019-02-25T18:01:19.121Z,6.90
2019-02-25T18:03:48.255Z,6.90
2019-02-25T18:06:22.549Z,6.80
2019-02-25T18:08:50.875Z,6.80
2019-02-25T18:11:22.372Z,6.70
2019-02-25T18:13:51.764Z,6.70
2019-02-25T18:16:22.673Z,6.60
2019-02-25T18:18:52.570Z,6.60
2019-02-25T18:21:23.044Z,6.60
2019-02-25T18:23:52.080Z,6.50
2019-02-25T18:26:21.909Z,6.50
2019-02-25T18:28:52.651Z,6.40
2019-02-25T18:31:22.309Z,6.40
2019-02-25T18:33:52.785Z,6.30
2019-02-25T18:36:23.928Z,6.30
2019-02-25T18:38:54.386Z,6.30
2019-02-25T18:41:25.396Z,6.30
2019-02-25T18:43:54.871Z,6.30
2019-02-25T18:46:25.541Z,6.20
2019-02-25T18:48:55.161Z,6.20
2019-02-25T18:51:26.378Z,6.20
2019-02-25T18:53:57.043Z,6.10
2019-02-25T18:56:25.990Z,6.10
2019-02-25T18:59:07.114Z,6.10
2019-02-25T19:01:25.791Z,6.10
2019-02-25T19:03:56.741Z,6.10
2019-02-25T19:06:25.676Z,6.00
2019-02-25T19:08:56.088Z,6.00
2019-02-25T19:11:27.756Z,5.90
2019-02-25T19:13:57.583Z,5.90
2019-02-25T19:16:27.177Z,5.80
2019-02-25T19:18:56.309Z,5.80
2019-02-25T19:21:26.027Z,5.80
2019-02-25T19:23:55.961Z,5.80
2019-02-25T19:26:25.087Z,5.70
2019-02-25T19:28:54.721Z,5.70
2019-02-25T19:31:26.058Z,5.60
2019-02-25T19:33:55.922Z,5.60
2019-02-25T19:36:27.594Z,5.60
2019-02-25T19:38:55.324Z,5.60
2019-02-25T19:41:27.125Z,5.60
2019-02-25T19:43:59.196Z,5.60
2019-02-25T19:46:26.511Z,5.60
2019-02-25T19:48:56.459Z,5.60
2019-02-25T19:51:27.458Z,5.60
2019-02-25T19:53:56.573Z,5.70
2019-02-25T19:56:26.745Z,5.70
2019-02-25T19:58:56.620Z,5.70
2019-02-25T20:01:26.855Z,5.70
2019-02-25T20:03:59.586Z,5.70
2019-02-25T20:06:28.233Z,5.70
2019-02-25T20:08:58.290Z,5.70
2019-02-25T20:11:28.602Z,5.70
2019-02-25T20:14:00.936Z,5.60
2019-02-25T20:16:30.391Z,5.60
2019-02-25T20:19:00.695Z,5.50
2019-02-25T20:21:31.393Z,5.50
2019-02-25T20:24:00.813Z,5.40
2019-02-25T20:26:32.576Z,5.40
2019-02-25T20:29:01.904Z,5.30
2019-02-25T20:31:33.799Z,5.20
2019-02-25T20:34:02.657Z,5.10
2019-02-25T20:36:32.700Z,5.00
2019-02-25T20:39:02.357Z,5.00
2019-02-25T20:41:31.773Z,4.90
2019-02-25T20:44:02.786Z,4.90
2019-02-25T20:46:32.749Z,4.90
2019-02-25T20:49:02.804Z,4.90
2019-02-25T20:51:34.352Z,5.00
2019-02-25T20:54:04.611Z,5.00
2019-02-25T20:56:33.650Z,5.00
2019-02-25T20:59:05.155Z,4.90
2019-02-25T21:01:37.202Z,4.90
2019-02-25T21:04:04.942Z,4.90
2019-02-25T21:06:35.855Z,4.90
2019-02-25T21:09:06.743Z,4.80
2019-02-25T21:11:36.840Z,4.70
2019-02-25T21:14:05.716Z,4.60
2019-02-25T21:16:34.737Z,4.60
2019-02-25T21:19:04.862Z,4.60
2019-02-25T21:21:34.582Z,4.60
2019-02-25T21:24:06.268Z,4.50
2019-02-25T21:26:36.363Z,4.50
2019-02-25T21:29:09.079Z,4.40
2019-02-25T21:31:42.775Z,4.40
2019-02-25T21:34:08.765Z,4.30
2019-02-25T21:36:38.688Z,4.30
2019-02-25T21:39:12.272Z,4.20
2019-02-25T21:41:43.598Z,4.20
2019-02-25T21:44:16.571Z,4.10
2019-02-25T21:46:43.991Z,4.10
2019-02-25T21:49:13.057Z,4.10
2019-02-25T21:51:43.703Z,4.10
2019-02-25T21:54:12.853Z,4.00
2019-02-25T21:56:41.733Z,4.00
2019-02-25T21:59:12.779Z,4.00
2019-02-25T22:01:42.695Z,3.90
2019-02-25T22:04:13.405Z,3.90
2019-02-25T22:06:47.114Z,3.90
2019-02-25T22:09:14.865Z,3.90
2019-02-25T22:11:45.969Z,3.90
2019-02-25T22:14:16.449Z,3.80
2019-02-25T22:16:50.003Z,3.80
2019-02-25T22:19:20.856Z,3.80
2019-02-25T22:21:53.522Z,3.80
2019-02-25T22:24:24.752Z,3.80
2019-02-25T22:26:53.649Z,3.80
2019-02-25T22:29:22.979Z,3.80
2019-02-25T22:31:52.103Z,3.70
2019-02-25T22:34:22.984Z,3.70
2019-02-25T22:36:53.450Z,3.70
2019-02-25T22:39:25.030Z,3.70
2019-02-25T22:41:54.081Z,3.60
2019-02-25T22:44:24.809Z,3.60
2019-02-25T22:46:54.908Z,3.50
2019-02-25T22:49:24.659Z,3.60
2019-02-25T22:51:55.974Z,3.50
2019-02-25T22:54:25.727Z,3.50
2019-02-25T22:56:54.782Z,3.50
2019-02-25T22:59:24.108Z,3.50
2019-02-25T23:01:53.218Z,3.50
2019-02-25T23:04:24.304Z,3.50
2019-02-25T23:06:53.972Z,3.50
2019-02-25T23:09:25.816Z,3.40
2019-02-25T23:11:55.529Z,3.40
2019-02-25T23:14:24.664Z,3.40
2019-02-25T23:16:54.128Z,3.40
2019-02-25T23:19:23.154Z,3.40
2019-02-25T23:21:52.030Z,3.40
2019-02-25T23:24:21.764Z,3.40
2019-02-25T23:26:51.376Z,3.40
2019-02-25T23:29:26.052Z,3.40
2019-02-25T23:31:53.259Z,3.40
2019-02-25T23:34:22.751Z,3.40
2019-02-25T23:36:53.990Z,3.40
2019-02-25T23:39:22.937Z,3.40
2019-02-25T23:41:52.002Z,3.40
2019-02-25T23:44:22.218Z,3.40
2019-02-25T23:46:55.242Z,3.40
2019-02-25T23:49:27.259Z,3.50
2019-02-25T23:51:53.732Z,3.40
2019-02-25T23:54:23.152Z,3.40
2019-02-25T23:56:54.501Z,3.40
2019-02-25T23:59:24.773Z,3.40
